Somerville, Virginia
Current Conditions -  °F | °C
As of 3:55 PM on Sunday 23 Nov 2014 (Local Time) from KHWY Reporting Station
Clear Clear  
Wind Chill: 60°   Ceiling: Unl
Heat Index: 60°   Visibility: 10mi
Dew Point: 46°   Wind: 5mph
Humidity: 59%   Direction: 160°SSE
Pressure: 30.07"   Gusts: NA
Location:  38.52°N, 77.61°W
Report Text: KHWY 232055Z AUTO 16004KT 10SM CLR 16/08 A3007 RMK AO2 T01550075
Loading
Personal Weather Stations






























Interactive Weather Map New forecast layout! Learn more

10-Day Weather Forecast

Advertisements
Track Severe Weather on mobile